createdAt,value
2018-07-13T00:01:40.129Z,14.60
2018-07-13T00:04:12.359Z,14.60
2018-07-13T00:06:42.846Z,14.60
2018-07-13T00:09:15.040Z,14.50
2018-07-13T00:11:46.563Z,14.50
2018-07-13T00:14:18.647Z,14.50
2018-07-13T00:17:00.270Z,14.50
2018-07-13T00:19:32.304Z,14.50
2018-07-13T00:22:04.639Z,14.40
2018-07-13T00:24:36.084Z,14.40
2018-07-13T00:27:08.087Z,14.40
2018-07-13T00:29:38.215Z,14.30
2018-07-13T00:32:07.851Z,14.30
2018-07-13T00:34:39.225Z,14.30
2018-07-13T00:37:11.229Z,14.30
2018-07-13T00:39:41.845Z,14.20
2018-07-13T00:42:13.979Z,14.30
2018-07-13T00:44:45.634Z,14.20
2018-07-13T00:47:17.110Z,14.10
2018-07-13T00:49:47.182Z,14.10
2018-07-13T00:52:18.741Z,14.00
2018-07-13T01:01:02.591Z,13.90
2018-07-13T01:03:34.704Z,13.90
2018-07-13T01:06:04.783Z,13.90
2018-07-13T01:08:37.285Z,13.90
2018-07-13T01:11:09.548Z,13.90
2018-07-13T01:13:40.491Z,13.90
2018-07-13T01:16:12.697Z,13.90
2018-07-13T01:24:47.912Z,13.90
2018-07-13T01:27:20.075Z,13.90
2018-07-13T01:29:50.986Z,13.80
2018-07-13T01:32:22.524Z,13.70
2018-07-13T01:34:54.223Z,13.70
2018-07-13T01:37:57.235Z,13.70
2018-07-13T01:40:28.193Z,13.60
2018-07-13T01:42:58.048Z,13.60
2018-07-13T01:45:29.753Z,13.70
2018-07-13T01:48:33.107Z,13.70
2018-07-13T01:51:03.297Z,13.60
2018-07-13T01:53:34.898Z,13.60
2018-07-13T01:56:06.829Z,13.50
2018-07-13T01:58:37.745Z,13.50
2018-07-13T02:01:08.677Z,13.50
2018-07-13T02:03:39.981Z,13.40
2018-07-13T02:06:11.915Z,13.50
2018-07-13T02:08:51.624Z,13.50
2018-07-13T02:11:22.509Z,13.50
2018-07-13T02:13:53.486Z,13.50
2018-07-13T02:16:25.846Z,13.50
2018-07-13T02:20:25.663Z,13.50
2018-07-13T02:22:57.727Z,13.50
2018-07-13T02:25:28.218Z,13.40
2018-07-13T02:28:01.904Z,13.40
2018-07-13T02:30:36.900Z,13.40
2018-07-13T02:33:07.191Z,13.40
2018-07-13T02:35:38.802Z,13.30
2018-07-13T02:38:10.099Z,13.30
2018-07-13T02:40:41.850Z,13.30
2018-07-13T02:43:13.144Z,13.30
2018-07-13T02:45:46.634Z,13.30
2018-07-13T02:48:18.867Z,13.40
2018-07-13T02:50:50.595Z,13.40
2018-07-13T02:53:21.945Z,13.50
2018-07-13T02:55:51.151Z,13.60
2018-07-13T03:00:58.958Z,13.80
2018-07-13T03:04:57.468Z,13.90
2018-07-13T03:07:28.888Z,14.00
2018-07-13T03:10:00.352Z,14.20
2018-07-13T03:12:34.874Z,14.20
2018-07-13T03:15:06.116Z,14.30
2018-07-13T03:37:08.160Z,14.50
2018-07-13T03:39:40.375Z,15.50
2018-07-13T03:42:10.223Z,15.50
2018-07-13T03:44:40.439Z,15.70
2018-07-13T03:47:10.280Z,15.90
2018-07-13T03:49:41.851Z,16.10
2018-07-13T03:52:13.949Z,16.20
2018-07-13T03:54:44.570Z,16.30
2018-07-13T03:57:16.529Z,16.40
2018-07-13T03:59:49.068Z,16.50
2018-07-13T04:05:33.219Z,16.70
2018-07-13T04:08:04.885Z,16.90
2018-07-13T04:10:36.777Z,17.10
2018-07-13T04:13:08.865Z,17.30
2018-07-13T04:15:40.674Z,17.50
2018-07-13T04:18:15.980Z,17.70
2018-07-13T04:20:48.545Z,17.80
2018-07-13T04:23:24.611Z,18.00
2018-07-13T04:25:56.978Z,18.20
2018-07-13T04:28:28.575Z,18.40
2018-07-13T04:31:00.956Z,18.50
2018-07-13T04:33:31.450Z,18.70
2018-07-13T04:36:02.572Z,18.80
2018-07-13T04:38:34.511Z,18.90
2018-07-13T04:41:04.317Z,19.00
2018-07-13T04:43:40.412Z,19.20
2018-07-13T04:49:14.593Z,19.50
2018-07-13T04:51:45.064Z,19.60
2018-07-13T04:54:15.192Z,19.60
2018-07-13T04:56:46.053Z,19.60
2018-07-13T04:59:20.215Z,19.70
2018-07-13T05:01:52.043Z,19.80
2018-07-13T05:04:24.358Z,19.90
2018-07-13T05:06:56.234Z,20.00
2018-07-13T05:09:27.469Z,20.20
2018-07-13T05:15:10.535Z,20.50
2018-07-13T05:17:41.027Z,20.80
2018-07-13T05:20:12.768Z,20.90
2018-07-13T05:22:44.436Z,21.10
2018-07-13T05:25:14.934Z,21.20
2018-07-13T05:27:45.775Z,21.20
2018-07-13T05:30:17.823Z,21.20
2018-07-13T05:37:04.216Z,21.10
2018-07-13T05:39:34.995Z,21.20
2018-07-13T05:42:08.612Z,21.10
2018-07-13T05:44:40.120Z,21.10
2018-07-13T05:51:56.096Z,21.00
2018-07-13T05:57:31.973Z,21.00
2018-07-13T06:03:14.021Z,21.10
2018-07-13T06:05:46.657Z,21.00
2018-07-13T06:08:18.656Z,21.00
2018-07-13T06:15:37.429Z,20.90
2018-07-13T06:18:09.148Z,21.00
2018-07-13T06:20:41.296Z,21.00
2018-07-13T06:26:23.031Z,21.10
2018-07-13T06:28:55.232Z,21.10
2018-07-13T06:31:25.279Z,21.10
2018-07-13T06:33:57.124Z,21.10
2018-07-13T06:40:21.300Z,21.10
2018-07-13T06:42:51.738Z,21.20
2018-07-13T06:45:23.261Z,21.30
2018-07-13T06:47:54.377Z,21.30
2018-07-13T06:50:25.952Z,21.30
2018-07-13T06:52:57.505Z,21.40
2018-07-13T06:55:27.382Z,21.40
2018-07-13T06:58:07.608Z,21.40
2018-07-13T07:01:09.939Z,21.40
2018-07-13T07:04:51.812Z,21.50
2018-07-13T07:07:31.896Z,21.50
2018-07-13T07:10:10.925Z,21.60
2018-07-13T07:12:53.580Z,21.60
2018-07-13T07:15:27.564Z,21.70
2018-07-13T07:31:09.636Z,21.70
2018-07-13T07:33:41.199Z,21.90
2018-07-13T07:36:13.036Z,21.90
2018-07-13T07:38:45.010Z,22.00
2018-07-13T07:41:15.246Z,22.00
2018-07-13T07:43:45.776Z,22.10
2018-07-13T07:46:16.987Z,22.10
2018-07-13T07:49:52.184Z,22.10
2018-07-13T07:52:24.424Z,22.20
2018-07-13T07:54:56.683Z,22.20
2018-07-13T07:57:28.396Z,22.30
2018-07-13T08:00:00.540Z,22.30
2018-07-13T08:02:31.668Z,22.40
2018-07-13T08:05:03.506Z,22.40
2018-07-13T08:07:33.710Z,22.50
2018-07-13T08:10:03.771Z,22.60
2018-07-13T08:12:35.339Z,22.60
2018-07-13T08:15:05.994Z,22.60
2018-07-13T08:17:37.385Z,22.70
2018-07-13T08:20:10.714Z,22.80
2018-07-13T08:22:47.539Z,22.80
2018-07-13T08:25:18.843Z,22.90
2018-07-13T08:27:52.454Z,22.90
2018-07-13T08:30:29.902Z,22.90
2018-07-13T08:33:01.277Z,22.90
2018-07-13T08:35:31.484Z,23.00
2018-07-13T08:38:02.064Z,23.10
2018-07-13T08:40:33.149Z,23.10
2018-07-13T08:43:03.906Z,23.20
2018-07-13T08:45:36.450Z,23.30
2018-07-13T08:48:07.232Z,23.30
2018-07-13T08:50:37.866Z,23.40
2018-07-13T08:53:08.270Z,23.40
2018-07-13T08:55:38.148Z,23.50
2018-07-13T08:58:09.621Z,23.40
2018-07-13T09:00:42.632Z,23.40
2018-07-13T09:03:12.781Z,23.50
2018-07-13T09:05:45.464Z,23.60
2018-07-13T09:08:17.726Z,23.60
2018-07-13T09:10:55.256Z,23.70
2018-07-13T09:13:27.157Z,23.60
2018-07-13T09:15:58.627Z,23.70
2018-07-13T09:18:29.249Z,23.80
2018-07-13T09:21:00.665Z,23.80
2018-07-13T09:23:31.390Z,23.80
2018-07-13T09:26:03.343Z,23.80
2018-07-13T09:28:35.071Z,23.80
2018-07-13T09:39:51.572Z,23.80
2018-07-13T09:42:24.464Z,24.00
2018-07-13T09:44:55.485Z,24.30
2018-07-13T09:47:27.480Z,24.30
2018-07-13T09:49:58.108Z,24.40
2018-07-13T09:52:28.505Z,24.50
2018-07-13T09:54:59.392Z,24.50
2018-07-13T09:57:29.711Z,24.40
2018-07-13T10:00:21.283Z,24.30
2018-07-13T10:02:51.111Z,24.40
2018-07-13T10:05:23.078Z,24.50
2018-07-13T10:07:53.826Z,24.60
2018-07-13T10:10:25.088Z,24.60
2018-07-13T10:12:54.300Z,24.60
2018-07-13T10:15:23.719Z,24.60
2018-07-13T10:17:54.571Z,24.60
2018-07-13T10:29:11.803Z,25.10
2018-07-13T10:31:42.337Z,25.30
2018-07-13T10:34:12.596Z,25.30
2018-07-13T10:36:53.448Z,25.30
2018-07-13T10:39:25.506Z,25.20
2018-07-13T10:41:55.497Z,25.20
2018-07-13T10:44:27.095Z,25.00
2018-07-13T10:46:58.155Z,25.00
2018-07-13T10:52:34.828Z,25.00
2018-07-13T10:55:06.403Z,25.10
2018-07-13T10:57:37.252Z,25.30
2018-07-13T11:00:08.516Z,25.50
2018-07-13T11:02:39.280Z,25.60
2018-07-13T11:05:12.242Z,25.60
2018-07-13T11:07:44.344Z,25.70
2018-07-13T11:10:16.240Z,25.70
2018-07-13T11:12:52.074Z,25.90
2018-07-13T11:15:24.072Z,26.10
2018-07-13T11:17:56.493Z,26.30
2018-07-13T11:20:28.268Z,26.30
2018-07-13T11:23:02.145Z,26.30
2018-07-13T11:25:33.428Z,26.40
2018-07-13T11:28:03.453Z,26.40
2018-07-13T11:30:35.003Z,26.50
2018-07-13T11:39:05.973Z,26.90
2018-07-13T11:41:37.378Z,26.80
2018-07-13T11:44:09.420Z,26.90
2018-07-13T11:46:39.305Z,26.90
2018-07-13T11:49:10.431Z,26.80
2018-07-13T11:51:40.625Z,26.70
2018-07-13T11:54:10.964Z,26.70
2018-07-13T11:56:43.476Z,26.60
2018-07-13T12:02:17.948Z,26.80
2018-07-13T12:04:50.832Z,26.80
2018-07-13T12:25:50.516Z,26.60
2018-07-13T12:28:21.555Z,26.40
2018-07-13T12:30:53.426Z,26.20
2018-07-13T12:33:25.533Z,26.30
2018-07-13T12:35:57.824Z,26.30
2018-07-13T12:38:27.952Z,26.40
2018-07-13T12:40:59.917Z,26.70
2018-07-13T12:46:29.817Z,27.50
2018-07-13T12:49:01.029Z,27.90
2018-07-13T12:51:30.719Z,28.20
2018-07-13T12:53:59.934Z,28.30
2018-07-13T12:56:30.552Z,28.20
2018-07-13T12:59:02.759Z,28.20
2018-07-13T13:01:34.809Z,28.10
2018-07-13T13:04:04.982Z,28.00
2018-07-13T13:06:35.969Z,27.90
2018-07-13T13:09:06.629Z,27.70
2018-07-13T13:11:36.796Z,27.40
2018-07-13T13:14:07.058Z,27.20
2018-07-13T13:16:39.242Z,26.90
2018-07-13T13:19:10.461Z,26.80
2018-07-13T13:21:41.095Z,26.70
2018-07-13T13:24:10.329Z,26.50
2018-07-13T13:26:47.560Z,26.50
2018-07-13T13:29:17.583Z,26.40
2018-07-13T13:31:49.142Z,26.30
2018-07-13T13:34:19.639Z,26.30
2018-07-13T13:36:51.192Z,26.30
2018-07-13T13:39:22.846Z,26.40
2018-07-13T13:41:52.891Z,26.50
2018-07-13T13:44:23.023Z,26.70
2018-07-13T13:46:56.610Z,26.90
2018-07-13T13:49:27.067Z,27.20
2018-07-13T13:51:58.118Z,27.30
2018-07-13T13:54:29.965Z,27.50
2018-07-13T13:57:01.527Z,27.50
2018-07-13T13:59:31.788Z,27.80
2018-07-13T14:02:02.457Z,27.80
2018-07-13T14:04:33.474Z,27.80
2018-07-13T14:07:21.188Z,27.80
2018-07-13T14:09:50.718Z,27.70
2018-07-13T14:12:21.539Z,27.60
2018-07-13T14:14:53.480Z,27.50
2018-07-13T14:17:25.088Z,27.50
2018-07-13T14:19:56.371Z,27.40
2018-07-13T14:22:27.783Z,27.30
2018-07-13T14:24:58.384Z,27.30
2018-07-13T14:30:28.432Z,27.00
2018-07-13T14:33:00.336Z,26.90
2018-07-13T14:35:32.377Z,26.80
2018-07-13T14:41:05.709Z,26.50
2018-07-13T14:43:35.361Z,26.50
2018-07-13T14:46:06.327Z,26.50
2018-07-13T14:48:38.113Z,26.50
2018-07-13T14:51:08.905Z,26.50
2018-07-13T14:53:40.204Z,26.60
2018-07-13T14:56:11.762Z,26.60
2018-07-13T14:58:52.632Z,26.60
2018-07-13T15:01:24.300Z,26.60
2018-07-13T15:03:54.936Z,26.70
2018-07-13T15:06:26.432Z,26.70
2018-07-13T15:08:58.130Z,26.80
2018-07-13T15:11:29.009Z,26.70
2018-07-13T15:14:00.243Z,26.70
2018-07-13T15:16:32.600Z,26.60
2018-07-13T15:19:04.437Z,26.50
2018-07-13T15:21:34.322Z,26.40
2018-07-13T15:24:03.636Z,26.30
2018-07-13T15:26:33.469Z,26.40
2018-07-13T15:29:03.142Z,26.50
2018-07-13T15:31:34.583Z,26.60
2018-07-13T15:34:04.468Z,26.70
2018-07-13T15:36:34.248Z,26.80
2018-07-13T15:39:07.547Z,26.90
2018-07-13T15:41:37.479Z,27.00
2018-07-13T15:44:07.360Z,27.10
2018-07-13T15:46:38.699Z,27.10
2018-07-13T15:49:09.206Z,26.90
2018-07-13T15:51:41.461Z,26.90
2018-07-13T15:54:11.315Z,27.00
2018-07-13T15:56:40.675Z,27.00
2018-07-13T15:59:13.648Z,27.00
2018-07-13T16:01:45.533Z,27.00
2018-07-13T16:04:17.361Z,27.20
2018-07-13T16:06:48.780Z,27.40
2018-07-13T16:09:20.303Z,27.60
2018-07-13T16:11:53.015Z,28.40
2018-07-13T16:14:25.063Z,29.90
2018-07-13T16:16:56.506Z,31.20
2018-07-13T16:19:34.387Z,32.40
2018-07-13T16:22:04.805Z,33.10
2018-07-13T16:24:36.556Z,33.60
2018-07-13T16:27:07.380Z,34.00
2018-07-13T16:29:39.208Z,33.40
2018-07-13T16:32:11.812Z,32.80
2018-07-13T16:34:44.427Z,32.50
2018-07-13T16:37:15.055Z,32.70
2018-07-13T16:39:47.133Z,33.10
2018-07-13T16:42:19.377Z,33.10
2018-07-13T16:44:49.371Z,32.90
2018-07-13T16:47:19.295Z,32.90
2018-07-13T16:49:49.917Z,32.40
2018-07-13T16:52:21.554Z,32.50
2018-07-13T16:54:53.895Z,33.10
2018-07-13T16:57:25.416Z,33.30
2018-07-13T17:08:51.214Z,30.60
2018-07-13T17:11:21.176Z,30.70
2018-07-13T17:13:50.776Z,29.80
2018-07-13T17:16:19.461Z,29.00
2018-07-13T17:18:48.307Z,28.40
2018-07-13T17:21:18.415Z,27.90
2018-07-13T17:23:49.776Z,27.50
2018-07-13T17:26:19.334Z,27.20
2018-07-13T17:28:49.329Z,27.20
2018-07-13T17:31:18.699Z,27.10
2018-07-13T17:33:48.261Z,26.90
2018-07-13T17:36:17.860Z,27.00
2018-07-13T17:38:47.264Z,28.00
2018-07-13T17:41:17.057Z,28.60
2018-07-13T17:43:46.288Z,28.50
2018-07-13T17:46:16.961Z,28.10
2018-07-13T17:48:49.021Z,27.70
2018-07-13T17:51:21.308Z,27.40
2018-07-13T17:53:52.094Z,28.00
2018-07-13T17:56:22.210Z,29.40
2018-07-13T17:58:52.077Z,30.70
2018-07-13T18:01:21.361Z,31.90
2018-07-13T18:03:52.079Z,32.70
2018-07-13T18:06:25.212Z,33.10
2018-07-13T18:09:15.112Z,33.00
2018-07-13T18:11:45.894Z,32.20
2018-07-13T18:14:16.578Z,31.00
2018-07-13T18:16:46.432Z,29.80
2018-07-13T18:19:17.077Z,28.80
2018-07-13T18:21:47.493Z,28.00
2018-07-13T18:24:18.343Z,27.50
2018-07-13T18:26:49.224Z,27.00
2018-07-13T18:32:20.296Z,26.30
2018-07-13T18:34:52.325Z,25.90
2018-07-13T18:37:22.835Z,25.60
2018-07-13T18:39:55.033Z,25.40
2018-07-13T18:42:27.445Z,25.10
2018-07-13T18:44:58.452Z,25.00
2018-07-13T18:47:29.551Z,24.80
2018-07-13T18:49:59.678Z,24.60
2018-07-13T18:52:29.391Z,24.50
2018-07-13T18:54:59.425Z,24.40
2018-07-13T18:57:29.640Z,24.30
2018-07-13T19:00:00.807Z,24.10
2018-07-13T19:02:32.620Z,24.00
2018-07-13T19:05:04.692Z,23.90
2018-07-13T19:07:36.604Z,23.70
2018-07-13T19:10:06.224Z,23.60
2018-07-13T19:12:37.224Z,23.50
2018-07-13T19:15:08.227Z,23.30
2018-07-13T19:17:40.049Z,23.20
2018-07-13T19:20:09.923Z,23.00
2018-07-13T19:22:39.444Z,22.90
2018-07-13T19:25:08.874Z,22.70
2018-07-13T19:27:38.548Z,22.60
2018-07-13T19:30:10.049Z,22.50
2018-07-13T19:32:45.252Z,22.40
2018-07-13T19:35:14.993Z,22.20
2018-07-13T19:37:44.888Z,22.10
2018-07-13T19:40:14.960Z,22.00
2018-07-13T19:42:45.947Z,21.90
2018-07-13T19:45:17.563Z,21.70
2018-07-13T19:47:48.514Z,21.60
2018-07-13T19:50:19.792Z,21.50
2018-07-13T19:52:58.402Z,21.40
2018-07-13T19:55:30.489Z,21.30
2018-07-13T19:58:00.228Z,21.20
2018-07-13T20:00:30.694Z,21.00
2018-07-13T20:03:00.859Z,20.90
2018-07-13T20:05:31.516Z,20.80
2018-07-13T20:08:01.932Z,20.70
2018-07-13T20:10:33.058Z,20.60
2018-07-13T20:13:04.251Z,20.50
2018-07-13T20:15:35.673Z,20.40
2018-07-13T20:18:07.974Z,20.30
2018-07-13T20:20:38.011Z,20.20
2018-07-13T20:23:07.002Z,20.00
2018-07-13T20:25:37.302Z,19.90
2018-07-13T20:28:07.729Z,19.80
2018-07-13T20:30:38.953Z,19.70
2018-07-13T20:33:15.927Z,19.60
2018-07-13T20:35:47.675Z,19.50
2018-07-13T20:38:19.715Z,19.40
2018-07-13T20:40:51.709Z,19.30
2018-07-13T20:43:21.020Z,19.30
2018-07-13T20:45:50.098Z,19.20
2018-07-13T20:48:19.986Z,19.20
2018-07-13T20:50:49.047Z,19.10
2018-07-13T20:53:18.388Z,19.00
2018-07-13T20:55:48.044Z,19.00
2018-07-13T20:58:18.504Z,19.00
2018-07-13T21:00:48.100Z,18.90
2018-07-13T21:03:17.760Z,18.80
2018-07-13T21:05:47.245Z,18.60
2018-07-13T21:08:17.020Z,18.60
2018-07-13T21:10:46.785Z,18.60
2018-07-13T21:13:17.680Z,18.50
2018-07-13T21:15:51.139Z,18.50
2018-07-13T21:18:22.471Z,18.40
2018-07-13T21:20:53.878Z,18.40
2018-07-13T21:23:23.996Z,18.30
2018-07-13T21:25:54.648Z,18.20
2018-07-13T21:28:25.716Z,18.20
2018-07-13T21:30:55.824Z,18.10
2018-07-13T21:33:43.864Z,18.00
2018-07-13T21:36:15.784Z,18.00
2018-07-13T21:38:47.773Z,18.00
2018-07-13T21:41:17.569Z,18.00
2018-07-13T21:43:47.567Z,17.90
2018-07-13T21:46:16.590Z,17.80
2018-07-13T21:48:47.581Z,17.80
2018-07-13T21:51:18.918Z,17.70
2018-07-13T21:53:54.679Z,17.60
2018-07-13T21:56:25.688Z,17.50
2018-07-13T21:58:55.797Z,17.50
2018-07-13T22:01:26.573Z,17.40
2018-07-13T22:03:56.458Z,17.40
2018-07-13T22:06:26.054Z,17.40
2018-07-13T22:08:55.253Z,17.30
2018-07-13T22:11:25.416Z,17.30
2018-07-13T22:13:55.389Z,17.30
2018-07-13T22:16:26.883Z,17.20
2018-07-13T22:18:58.495Z,17.20
2018-07-13T22:21:29.621Z,17.20
2018-07-13T22:23:59.770Z,17.20
2018-07-13T22:26:28.745Z,17.20
2018-07-13T22:28:57.662Z,17.10
2018-07-13T22:31:28.590Z,17.00
2018-07-13T22:33:58.788Z,16.90
2018-07-13T22:36:29.276Z,16.90
2018-07-13T22:38:59.833Z,16.90
2018-07-13T22:41:29.719Z,16.90
2018-07-13T22:44:00.725Z,16.90
2018-07-13T22:46:30.671Z,16.80
2018-07-13T22:49:01.481Z,16.80
2018-07-13T22:51:31.752Z,16.70
2018-07-13T22:54:02.025Z,16.70
2018-07-13T22:56:32.400Z,16.70
2018-07-13T22:59:02.492Z,16.60
2018-07-13T23:01:34.885Z,16.50
2018-07-13T23:04:05.328Z,16.50
2018-07-13T23:06:36.386Z,16.40
2018-07-13T23:09:08.214Z,16.30
2018-07-13T23:11:39.391Z,16.20
2018-07-13T23:14:11.440Z,16.20
2018-07-13T23:16:41.697Z,16.20
2018-07-13T23:19:11.664Z,16.20
2018-07-13T23:21:40.695Z,16.10
2018-07-13T23:24:09.893Z,16.10
2018-07-13T23:26:41.570Z,16.00
2018-07-13T23:29:12.928Z,16.00
2018-07-13T23:31:44.298Z,16.00
2018-07-13T23:34:15.961Z,16.00
2018-07-13T23:36:45.220Z,15.90
2018-07-13T23:39:14.452Z,15.90
2018-07-13T23:41:44.636Z,15.90
2018-07-13T23:44:14.619Z,15.80
2018-07-13T23:46:44.647Z,15.80
2018-07-13T23:49:14.778Z,15.90
2018-07-13T23:51:44.326Z,15.90
2018-07-13T23:54:14.752Z,15.80
2018-07-13T23:56:43.699Z,15.70
2018-07-13T23:59:12.888Z,15.70
